Julian, California
Current Conditions -  °F | °C
As of 5:53 AM on Friday 24 Oct 2014 (Local Time) from KRNM Reporting Station
Clear Clear  
Wind Chill: 49°   Ceiling: Unl
Heat Index: 49°   Visibility: 10mi
Dew Point: 37°   Wind: 0mph
Humidity: 64%   Direction: NA
Pressure: 30"   Gusts: NA
Location:  33.08°N, 116.6°W
Report Text: KRNM 241253Z AUTO 00000KT 10SM CLR 09/03 A3000 RMK AO2 SLP150 T00940028 TSNO
Loading
Personal Weather Stations






























Interactive Weather Map
Tropical Storm Tracking
New forecast layout! Learn more

10-Day Weather Forecast

Advertisements
Track Severe Weather on mobile